sensor_id;sensor_type;location;lat;lon;timestamp;P1;durP1;ratioP1;P2;durP2;ratioP2
54428;SDS011;40337;52.978;6.310;2022-09-17T00:01:24;12.85;;;3.00;;
54428;SDS011;40337;52.978;6.310;2022-09-17T00:03:52;11.45;;;3.10;;
54428;SDS011;40337;52.978;6.310;2022-09-17T00:06:22;13.52;;;2.88;;
54428;SDS011;40337;52.978;6.310;2022-09-17T00:08:49;13.40;;;3.00;;
54428;SDS011;40337;52.978;6.310;2022-09-17T00:11:18;10.40;;;2.97;;
54428;SDS011;40337;52.978;6.310;2022-09-17T00:13:47;12.63;;;3.08;;
54428;SDS011;40337;52.978;6.310;2022-09-17T00:16:20;13.05;;;2.92;;
54428;SDS011;40337;52.978;6.310;2022-09-17T00:18:51;11.18;;;2.90;;
54428;SDS011;40337;52.978;6.310;2022-09-17T00:21:17;11.68;;;2.90;;
54428;SDS011;40337;52.978;6.310;2022-09-17T00:23:43;11.02;;;2.80;;
54428;SDS011;40337;52.978;6.310;2022-09-17T00:26:09;11.57;;;3.30;;
54428;SDS011;40337;52.978;6.310;2022-09-17T00:28:35;12.70;;;2.90;;
54428;SDS011;40337;52.978;6.310;2022-09-17T00:31:05;12.77;;;3.13;;
54428;SDS011;40337;52.978;6.310;2022-09-17T00:33:31;12.20;;;2.80;;
54428;SDS011;40337;52.978;6.310;2022-09-17T00:36:00;13.85;;;2.85;;
54428;SDS011;40337;52.978;6.310;2022-09-17T00:38:27;12.98;;;3.05;;
54428;SDS011;40337;52.978;6.310;2022-09-17T00:40:53;11.45;;;2.85;;
54428;SDS011;40337;52.978;6.310;2022-09-17T00:43:35;11.32;;;2.70;;
54428;SDS011;40337;52.978;6.310;2022-09-17T00:46:11;11.02;;;2.78;;
54428;SDS011;40337;52.978;6.310;2022-09-17T00:49:00;12.30;;;2.97;;
54428;SDS011;40337;52.978;6.310;2022-09-17T00:51:32;12.52;;;2.97;;
54428;SDS011;40337;52.978;6.310;2022-09-17T00:54:02;13.77;;;3.13;;
54428;SDS011;40337;52.978;6.310;2022-09-17T00:56:31;9.52;;;2.60;;
54428;SDS011;40337;52.978;6.310;2022-09-17T00:58:59;9.25;;;2.45;;
54428;SDS011;40337;52.978;6.310;2022-09-17T01:01:26;11.73;;;3.03;;
54428;SDS011;40337;52.978;6.310;2022-09-17T01:03:52;11.10;;;3.05;;
54428;SDS011;40337;52.978;6.310;2022-09-17T01:06:24;9.18;;;3.03;;
54428;SDS011;40337;52.978;6.310;2022-09-17T01:23:34;13.25;;;3.00;;
54428;SDS011;40337;52.978;6.310;2022-09-17T01:26:22;14.40;;;2.88;;
54428;SDS011;40337;52.978;6.310;2022-09-17T01:31:58;11.85;;;2.83;;
54428;SDS011;40337;52.978;6.310;2022-09-17T01:37:33;12.38;;;3.40;;
54428;SDS011;40337;52.978;6.310;2022-09-17T01:40:11;11.55;;;2.78;;
54428;SDS011;40337;52.978;6.310;2022-09-17T01:42:56;11.48;;;2.45;;
54428;SDS011;40337;52.978;6.310;2022-09-17T01:45:38;11.95;;;2.40;;
54428;SDS011;40337;52.978;6.310;2022-09-17T01:48:32;11.60;;;3.00;;
54428;SDS011;40337;52.978;6.310;2022-09-17T01:51:06;13.40;;;3.05;;
54428;SDS011;40337;52.978;6.310;2022-09-17T01:53:52;12.23;;;2.65;;
54428;SDS011;40337;52.978;6.310;2022-09-17T01:56:22;10.63;;;2.63;;
54428;SDS011;40337;52.978;6.310;2022-09-17T01:59:34;11.32;;;2.80;;
54428;SDS011;40337;52.978;6.310;2022-09-17T02:01:42;12.13;;;2.75;;
54428;SDS011;40337;52.978;6.310;2022-09-17T02:04:37;14.68;;;2.75;;
54428;SDS011;40337;52.978;6.310;2022-09-17T02:07:04;13.40;;;3.13;;
54428;SDS011;40337;52.978;6.310;2022-09-17T02:09:35;13.93;;;3.10;;
54428;SDS011;40337;52.978;6.310;2022-09-17T02:12:06;11.90;;;2.75;;
54428;SDS011;40337;52.978;6.310;2022-09-17T02:14:38;12.43;;;2.40;;
54428;SDS011;40337;52.978;6.310;2022-09-17T02:20:10;12.07;;;2.55;;
54428;SDS011;40337;52.978;6.310;2022-09-17T02:22:41;11.18;;;2.25;;
54428;SDS011;40337;52.978;6.310;2022-09-17T02:25:27;10.10;;;2.95;;
54428;SDS011;40337;52.978;6.310;2022-09-17T02:28:01;11.48;;;3.08;;
54428;SDS011;40337;52.978;6.310;2022-09-17T02:30:44;11.20;;;2.35;;
54428;SDS011;40337;52.978;6.310;2022-09-17T02:33:11;10.13;;;2.63;;
54428;SDS011;40337;52.978;6.310;2022-09-17T02:35:39;10.77;;;2.83;;
54428;SDS011;40337;52.978;6.310;2022-09-17T02:38:06;8.95;;;2.38;;
54428;SDS011;40337;52.978;6.310;2022-09-17T02:40:34;11.45;;;2.63;;
54428;SDS011;40337;52.978;6.310;2022-09-17T02:51:52;8.50;;;2.55;;
54428;SDS011;40337;52.978;6.310;2022-09-17T02:57:05;8.60;;;2.25;;
54428;SDS011;40337;52.978;6.310;2022-09-17T03:02:15;9.95;;;2.30;;
54428;SDS011;40337;52.978;6.310;2022-09-17T03:04:46;9.60;;;2.20;;
54428;SDS011;40337;52.978;6.310;2022-09-17T03:07:13;9.95;;;2.33;;
54428;SDS011;40337;52.978;6.310;2022-09-17T03:09:41;8.93;;;2.22;;
54428;SDS011;40337;52.978;6.310;2022-09-17T03:12:07;8.50;;;2.30;;
54428;SDS011;40337;52.978;6.310;2022-09-17T03:14:37;8.70;;;2.00;;
54428;SDS011;40337;52.978;6.310;2022-09-17T03:17:02;8.63;;;2.47;;
54428;SDS011;40337;52.978;6.310;2022-09-17T03:19:28;10.13;;;2.50;;
54428;SDS011;40337;52.978;6.310;2022-09-17T03:21:54;8.90;;;2.00;;
54428;SDS011;40337;52.978;6.310;2022-09-17T03:24:19;8.35;;;1.98;;
54428;SDS011;40337;52.978;6.310;2022-09-17T03:26:45;6.88;;;1.95;;
54428;SDS011;40337;52.978;6.310;2022-09-17T03:29:14;7.72;;;2.20;;
54428;SDS011;40337;52.978;6.310;2022-09-17T03:31:40;10.13;;;2.47;;
54428;SDS011;40337;52.978;6.310;2022-09-17T03:34:06;10.93;;;1.95;;
54428;SDS011;40337;52.978;6.310;2022-09-17T03:36:31;9.05;;;2.33;;
54428;SDS011;40337;52.978;6.310;2022-09-17T03:38:57;9.55;;;2.17;;
54428;SDS011;40337;52.978;6.310;2022-09-17T03:41:23;10.73;;;2.40;;
54428;SDS011;40337;52.978;6.310;2022-09-17T03:43:50;8.57;;;2.45;;
54428;SDS011;40337;52.978;6.310;2022-09-17T03:46:16;9.55;;;2.33;;
54428;SDS011;40337;52.978;6.310;2022-09-17T03:48:42;11.60;;;2.42;;
54428;SDS011;40337;52.978;6.310;2022-09-17T03:51:07;7.65;;;2.17;;
54428;SDS011;40337;52.978;6.310;2022-09-17T03:53:33;13.80;;;2.80;;
54428;SDS011;40337;52.978;6.310;2022-09-17T03:56:02;8.73;;;2.25;;
54428;SDS011;40337;52.978;6.310;2022-09-17T03:58:30;10.77;;;2.65;;
54428;SDS011;40337;52.978;6.310;2022-09-17T04:00:56;11.20;;;2.60;;
54428;SDS011;40337;52.978;6.310;2022-09-17T04:03:25;9.93;;;2.55;;
54428;SDS011;40337;52.978;6.310;2022-09-17T04:05:52;9.52;;;2.40;;
54428;SDS011;40337;52.978;6.310;2022-09-17T04:08:18;12.02;;;3.08;;
54428;SDS011;40337;52.978;6.310;2022-09-17T04:10:45;8.32;;;2.47;;
54428;SDS011;40337;52.978;6.310;2022-09-17T04:13:11;7.90;;;2.05;;
54428;SDS011;40337;52.978;6.310;2022-09-17T04:15:37;11.68;;;2.63;;
54428;SDS011;40337;52.978;6.310;2022-09-17T04:18:03;8.13;;;2.08;;
54428;SDS011;40337;52.978;6.310;2022-09-17T04:20:29;10.73;;;2.40;;
54428;SDS011;40337;52.978;6.310;2022-09-17T04:22:55;10.73;;;2.05;;
54428;SDS011;40337;52.978;6.310;2022-09-17T04:25:20;10.93;;;2.63;;
54428;SDS011;40337;52.978;6.310;2022-09-17T04:27:46;9.73;;;2.05;;
54428;SDS011;40337;52.978;6.310;2022-09-17T04:30:12;9.38;;;2.20;;
54428;SDS011;40337;52.978;6.310;2022-09-17T04:32:38;9.88;;;2.30;;
54428;SDS011;40337;52.978;6.310;2022-09-17T04:35:05;9.65;;;2.35;;
54428;SDS011;40337;52.978;6.310;2022-09-17T04:37:30;9.75;;;2.38;;
54428;SDS011;40337;52.978;6.310;2022-09-17T04:39:56;6.80;;;2.00;;
54428;SDS011;40337;52.978;6.310;2022-09-17T04:42:22;8.15;;;2.10;;
54428;SDS011;40337;52.978;6.310;2022-09-17T04:44:48;12.63;;;2.42;;
54428;SDS011;40337;52.978;6.310;2022-09-17T04:47:13;10.57;;;2.58;;
54428;SDS011;40337;52.978;6.310;2022-09-17T04:49:39;9.20;;;2.40;;
54428;SDS011;40337;52.978;6.310;2022-09-17T04:52:04;8.00;;;1.98;;
54428;SDS011;40337;52.978;6.310;2022-09-17T04:54:30;11.93;;;2.38;;
54428;SDS011;40337;52.978;6.310;2022-09-17T04:56:56;10.45;;;2.40;;
54428;SDS011;40337;52.978;6.310;2022-09-17T04:59:22;10.65;;;2.63;;
54428;SDS011;40337;52.978;6.310;2022-09-17T05:01:47;6.80;;;2.42;;
54428;SDS011;40337;52.978;6.310;2022-09-17T05:04:13;10.55;;;2.13;;
54428;SDS011;40337;52.978;6.310;2022-09-17T05:06:40;10.50;;;2.45;;
54428;SDS011;40337;52.978;6.310;2022-09-17T05:09:05;11.90;;;2.45;;
54428;SDS011;40337;52.978;6.310;2022-09-17T05:11:31;10.25;;;2.47;;
54428;SDS011;40337;52.978;6.310;2022-09-17T05:13:57;8.70;;;2.20;;
54428;SDS011;40337;52.978;6.310;2022-09-17T05:16:22;8.40;;;1.80;;
54428;SDS011;40337;52.978;6.310;2022-09-17T05:18:48;7.35;;;1.98;;
54428;SDS011;40337;52.978;6.310;2022-09-17T05:21:15;12.48;;;2.33;;
54428;SDS011;40337;52.978;6.310;2022-09-17T05:23:44;13.52;;;2.60;;
54428;SDS011;40337;52.978;6.310;2022-09-17T05:26:10;9.27;;;2.40;;
54428;SDS011;40337;52.978;6.310;2022-09-17T05:28:36;10.57;;;2.70;;
54428;SDS011;40337;52.978;6.310;2022-09-17T05:31:01;9.88;;;2.40;;
54428;SDS011;40337;52.978;6.310;2022-09-17T05:33:27;9.68;;;2.00;;
54428;SDS011;40337;52.978;6.310;2022-09-17T05:35:53;7.30;;;2.15;;
54428;SDS011;40337;52.978;6.310;2022-09-17T05:38:18;12.90;;;2.53;;
54428;SDS011;40337;52.978;6.310;2022-09-17T05:40:44;9.90;;;2.33;;
54428;SDS011;40337;52.978;6.310;2022-09-17T05:43:10;9.45;;;2.40;;
54428;SDS011;40337;52.978;6.310;2022-09-17T05:45:36;11.45;;;2.17;;
54428;SDS011;40337;52.978;6.310;2022-09-17T05:48:03;6.78;;;1.80;;
54428;SDS011;40337;52.978;6.310;2022-09-17T05:50:30;9.00;;;2.22;;
54428;SDS011;40337;52.978;6.310;2022-09-17T05:52:56;11.30;;;2.28;;
54428;SDS011;40337;52.978;6.310;2022-09-17T05:55:28;11.45;;;2.22;;
54428;SDS011;40337;52.978;6.310;2022-09-17T05:57:54;7.80;;;2.22;;
54428;SDS011;40337;52.978;6.310;2022-09-17T06:00:19;8.07;;;1.92;;
54428;SDS011;40337;52.978;6.310;2022-09-17T06:02:45;7.78;;;2.00;;
54428;SDS011;40337;52.978;6.310;2022-09-17T06:05:10;8.63;;;1.92;;
54428;SDS011;40337;52.978;6.310;2022-09-17T06:07:36;8.30;;;1.85;;
54428;SDS011;40337;52.978;6.310;2022-09-17T06:10:03;8.77;;;1.92;;
54428;SDS011;40337;52.978;6.310;2022-09-17T06:12:30;10.73;;;2.05;;
54428;SDS011;40337;52.978;6.310;2022-09-17T06:14:56;8.30;;;2.13;;
54428;SDS011;40337;52.978;6.310;2022-09-17T06:17:21;7.30;;;1.80;;
54428;SDS011;40337;52.978;6.310;2022-09-17T06:19:47;9.32;;;2.40;;
54428;SDS011;40337;52.978;6.310;2022-09-17T06:22:12;8.15;;;1.98;;
54428;SDS011;40337;52.978;6.310;2022-09-17T06:24:38;9.48;;;2.20;;
54428;SDS011;40337;52.978;6.310;2022-09-17T06:27:04;8.30;;;2.47;;
54428;SDS011;40337;52.978;6.310;2022-09-17T06:29:29;6.82;;;1.80;;
54428;SDS011;40337;52.978;6.310;2022-09-17T06:31:55;10.18;;;2.20;;
54428;SDS011;40337;52.978;6.310;2022-09-17T06:34:20;9.60;;;2.17;;
54428;SDS011;40337;52.978;6.310;2022-09-17T06:36:47;7.35;;;2.17;;
54428;SDS011;40337;52.978;6.310;2022-09-17T06:39:13;6.97;;;2.17;;
54428;SDS011;40337;52.978;6.310;2022-09-17T06:41:40;6.97;;;1.60;;
54428;SDS011;40337;52.978;6.310;2022-09-17T06:44:07;8.82;;;1.85;;
54428;SDS011;40337;52.978;6.310;2022-09-17T06:46:32;7.55;;;1.83;;
54428;SDS011;40337;52.978;6.310;2022-09-17T06:48:58;8.13;;;1.98;;
54428;SDS011;40337;52.978;6.310;2022-09-17T06:51:24;7.32;;;1.70;;
54428;SDS011;40337;52.978;6.310;2022-09-17T06:53:49;7.13;;;2.05;;
54428;SDS011;40337;52.978;6.310;2022-09-17T06:56:15;8.25;;;1.73;;
54428;SDS011;40337;52.978;6.310;2022-09-17T06:58:41;10.25;;;2.00;;
54428;SDS011;40337;52.978;6.310;2022-09-17T07:01:08;9.32;;;1.80;;
54428;SDS011;40337;52.978;6.310;2022-09-17T07:03:37;6.57;;;1.50;;
54428;SDS011;40337;52.978;6.310;2022-09-17T07:06:03;6.43;;;1.90;;
54428;SDS011;40337;52.978;6.310;2022-09-17T07:08:33;6.22;;;1.65;;
54428;SDS011;40337;52.978;6.310;2022-09-17T07:10:59;5.90;;;1.42;;
54428;SDS011;40337;52.978;6.310;2022-09-17T07:13:25;7.97;;;1.60;;
54428;SDS011;40337;52.978;6.310;2022-09-17T07:15:51;6.78;;;1.67;;
54428;SDS011;40337;52.978;6.310;2022-09-17T07:18:18;8.23;;;1.90;;
54428;SDS011;40337;52.978;6.310;2022-09-17T07:20:43;6.43;;;1.85;;
54428;SDS011;40337;52.978;6.310;2022-09-17T07:23:16;8.43;;;1.92;;
54428;SDS011;40337;52.978;6.310;2022-09-17T07:25:41;8.38;;;1.90;;
54428;SDS011;40337;52.978;6.310;2022-09-17T07:28:07;11.52;;;1.88;;
54428;SDS011;40337;52.978;6.310;2022-09-17T07:30:32;6.80;;;1.80;;
54428;SDS011;40337;52.978;6.310;2022-09-17T07:32:59;5.97;;;1.48;;
54428;SDS011;40337;52.978;6.310;2022-09-17T07:35:26;8.25;;;1.80;;
54428;SDS011;40337;52.978;6.310;2022-09-17T07:37:52;7.32;;;1.52;;
54428;SDS011;40337;52.978;6.310;2022-09-17T07:40:27;6.22;;;1.60;;
54428;SDS011;40337;52.978;6.310;2022-09-17T07:42:55;8.57;;;1.50;;
54428;SDS011;40337;52.978;6.310;2022-09-17T07:45:22;5.10;;;1.40;;
54428;SDS011;40337;52.978;6.310;2022-09-17T07:47:47;7.15;;;1.50;;
54428;SDS011;40337;52.978;6.310;2022-09-17T07:50:13;5.22;;;1.50;;
54428;SDS011;40337;52.978;6.310;2022-09-17T07:52:44;7.78;;;1.48;;
54428;SDS011;40337;52.978;6.310;2022-09-17T07:55:11;6.95;;;1.52;;
54428;SDS011;40337;52.978;6.310;2022-09-17T07:57:36;5.18;;;1.35;;
54428;SDS011;40337;52.978;6.310;2022-09-17T08:00:02;5.00;;;1.40;;
54428;SDS011;40337;52.978;6.310;2022-09-17T08:02:28;6.68;;;1.40;;
54428;SDS011;40337;52.978;6.310;2022-09-17T08:04:54;5.72;;;1.27;;
54428;SDS011;40337;52.978;6.310;2022-09-17T08:07:19;5.07;;;1.30;;
54428;SDS011;40337;52.978;6.310;2022-09-17T08:09:45;5.82;;;1.50;;
54428;SDS011;40337;52.978;6.310;2022-09-17T08:12:10;6.35;;;1.40;;
54428;SDS011;40337;52.978;6.310;2022-09-17T08:14:36;4.85;;;1.23;;
54428;SDS011;40337;52.978;6.310;2022-09-17T08:17:05;6.97;;;1.27;;
54428;SDS011;40337;52.978;6.310;2022-09-17T08:19:32;5.13;;;1.45;;
54428;SDS011;40337;52.978;6.310;2022-09-17T08:21:58;4.70;;;1.33;;
54428;SDS011;40337;52.978;6.310;2022-09-17T08:24:23;6.88;;;1.40;;
54428;SDS011;40337;52.978;6.310;2022-09-17T08:26:49;6.07;;;1.40;;
54428;SDS011;40337;52.978;6.310;2022-09-17T08:29:14;5.47;;;1.10;;
54428;SDS011;40337;52.978;6.310;2022-09-17T08:31:40;5.32;;;1.40;;
54428;SDS011;40337;52.978;6.310;2022-09-17T08:34:06;4.32;;;1.30;;
54428;SDS011;40337;52.978;6.310;2022-09-17T08:36:33;4.70;;;1.50;;
54428;SDS011;40337;52.978;6.310;2022-09-17T08:38:59;10.68;;;1.55;;
54428;SDS011;40337;52.978;6.310;2022-09-17T08:46:32;5.80;;;1.35;;
54428;SDS011;40337;52.978;6.310;2022-09-17T08:57:39;6.80;;;2.10;;
54428;SDS011;40337;52.978;6.310;2022-09-17T09:10:56;7.57;;;1.50;;
54428;SDS011;40337;52.978;6.310;2022-09-17T09:13:26;6.10;;;1.55;;
54428;SDS011;40337;52.978;6.310;2022-09-17T09:16:01;6.22;;;1.40;;
54428;SDS011;40337;52.978;6.310;2022-09-17T09:18:32;6.38;;;1.60;;
54428;SDS011;40337;52.978;6.310;2022-09-17T09:23:54;9.02;;;2.25;;
54428;SDS011;40337;52.978;6.310;2022-09-17T09:29:12;7.45;;;1.42;;
54428;SDS011;40337;52.978;6.310;2022-09-17T09:34:28;3.55;;;1.00;;
54428;SDS011;40337;52.978;6.310;2022-09-17T09:37:20;3.35;;;0.82;;
54428;SDS011;40337;52.978;6.310;2022-09-17T09:39:52;3.65;;;0.90;;
54428;SDS011;40337;52.978;6.310;2022-09-17T09:42:32;3.60;;;1.13;;
54428;SDS011;40337;52.978;6.310;2022-09-17T09:45:01;5.07;;;1.40;;
54428;SDS011;40337;52.978;6.310;2022-09-17T09:47:49;3.90;;;1.30;;
54428;SDS011;40337;52.978;6.310;2022-09-17T09:50:34;7.05;;;1.33;;
54428;SDS011;40337;52.978;6.310;2022-09-17T09:56:24;6.85;;;1.60;;
54428;SDS011;40337;52.978;6.310;2022-09-17T09:59:01;5.18;;;1.30;;
54428;SDS011;40337;52.978;6.310;2022-09-17T10:01:31;6.13;;;1.40;;
54428;SDS011;40337;52.978;6.310;2022-09-17T10:04:00;6.05;;;1.52;;
54428;SDS011;40337;52.978;6.310;2022-09-17T10:06:34;6.45;;;1.40;;
54428;SDS011;40337;52.978;6.310;2022-09-17T10:11:26;5.78;;;1.55;;
54428;SDS011;40337;52.978;6.310;2022-09-17T10:13:53;4.70;;;1.10;;
54428;SDS011;40337;52.978;6.310;2022-09-17T10:16:49;6.07;;;1.42;;
54428;SDS011;40337;52.978;6.310;2022-09-17T10:19:37;5.20;;;1.50;;
54428;SDS011;40337;52.978;6.310;2022-09-17T10:22:17;5.72;;;1.40;;
54428;SDS011;40337;52.978;6.310;2022-09-17T10:24:51;6.82;;;1.58;;
54428;SDS011;40337;52.978;6.310;2022-09-17T10:27:20;5.60;;;1.50;;
54428;SDS011;40337;52.978;6.310;2022-09-17T10:29:48;7.18;;;1.70;;
54428;SDS011;40337;52.978;6.310;2022-09-17T10:32:18;6.88;;;1.73;;
54428;SDS011;40337;52.978;6.310;2022-09-17T10:35:01;7.43;;;1.83;;
54428;SDS011;40337;52.978;6.310;2022-09-17T10:39:57;6.95;;;1.92;;
54428;SDS011;40337;52.978;6.310;2022-09-17T10:42:22;6.18;;;1.67;;
54428;SDS011;40337;52.978;6.310;2022-09-17T10:44:54;7.53;;;1.77;;
54428;SDS011;40337;52.978;6.310;2022-09-17T10:47:28;7.32;;;1.77;;
54428;SDS011;40337;52.978;6.310;2022-09-17T10:49:56;8.20;;;1.90;;
54428;SDS011;40337;52.978;6.310;2022-09-17T10:52:29;6.25;;;1.70;;
54428;SDS011;40337;52.978;6.310;2022-09-17T10:55:04;5.90;;;1.63;;
54428;SDS011;40337;52.978;6.310;2022-09-17T11:00:51;5.00;;;1.40;;
54428;SDS011;40337;52.978;6.310;2022-09-17T11:11:44;4.80;;;1.50;;
54428;SDS011;40337;52.978;6.310;2022-09-17T11:14:39;5.97;;;1.80;;
54428;SDS011;40337;52.978;6.310;2022-09-17T11:20:04;5.72;;;1.60;;
54428;SDS011;40337;52.978;6.310;2022-09-17T11:25:43;6.72;;;1.55;;
54428;SDS011;40337;52.978;6.310;2022-09-17T11:28:32;7.35;;;1.70;;
54428;SDS011;40337;52.978;6.310;2022-09-17T11:31:20;5.57;;;1.40;;
54428;SDS011;40337;52.978;6.310;2022-09-17T11:34:01;5.38;;;1.35;;
54428;SDS011;40337;52.978;6.310;2022-09-17T11:36:37;5.28;;;1.30;;
54428;SDS011;40337;52.978;6.310;2022-09-17T11:39:17;6.63;;;1.52;;
54428;SDS011;40337;52.978;6.310;2022-09-17T11:41:48;8.10;;;1.58;;
54428;SDS011;40337;52.978;6.310;2022-09-17T11:44:23;6.03;;;1.55;;
54428;SDS011;40337;52.978;6.310;2022-09-17T11:46:59;6.25;;;1.60;;
54428;SDS011;40337;52.978;6.310;2022-09-17T11:49:50;6.95;;;1.95;;
54428;SDS011;40337;52.978;6.310;2022-09-17T11:52:21;6.00;;;1.75;;
54428;SDS011;40337;52.978;6.310;2022-09-17T12:00:05;8.55;;;2.03;;
54428;SDS011;40337;52.978;6.310;2022-09-17T12:02:47;6.82;;;1.80;;
54428;SDS011;40337;52.978;6.310;2022-09-17T12:05:41;8.57;;;2.00;;
54428;SDS011;40337;52.978;6.310;2022-09-17T12:08:12;8.23;;;2.27;;
54428;SDS011;40337;52.978;6.310;2022-09-17T12:13:39;11.52;;;2.20;;
54428;SDS011;40337;52.978;6.310;2022-09-17T12:16:19;8.98;;;2.25;;
54428;SDS011;40337;52.978;6.310;2022-09-17T12:19:10;8.05;;;2.22;;
54428;SDS011;40337;52.978;6.310;2022-09-17T12:21:38;12.30;;;2.40;;
54428;SDS011;40337;52.978;6.310;2022-09-17T12:24:21;10.57;;;2.25;;
54428;SDS011;40337;52.978;6.310;2022-09-17T12:26:54;11.93;;;2.33;;
54428;SDS011;40337;52.978;6.310;2022-09-17T12:43:00;9.88;;;2.10;;
54428;SDS011;40337;52.978;6.310;2022-09-17T12:45:40;9.80;;;2.53;;
54428;SDS011;40337;52.978;6.310;2022-09-17T12:48:37;13.38;;;2.63;;
54428;SDS011;40337;52.978;6.310;2022-09-17T12:54:10;9.15;;;2.42;;
54428;SDS011;40337;52.978;6.310;2022-09-17T12:56:59;12.25;;;2.58;;
54428;SDS011;40337;52.978;6.310;2022-09-17T12:59:33;12.13;;;2.50;;
54428;SDS011;40337;52.978;6.310;2022-09-17T13:05:00;11.43;;;3.00;;
54428;SDS011;40337;52.978;6.310;2022-09-17T13:07:37;9.35;;;2.60;;
54428;SDS011;40337;52.978;6.310;2022-09-17T13:12:56;12.20;;;2.50;;
54428;SDS011;40337;52.978;6.310;2022-09-17T13:18:51;11.00;;;2.45;;
54428;SDS011;40337;52.978;6.310;2022-09-17T13:24:13;10.77;;;2.55;;
54428;SDS011;40337;52.978;6.310;2022-09-17T13:26:52;10.70;;;2.20;;
54428;SDS011;40337;52.978;6.310;2022-09-17T13:37:37;11.35;;;2.47;;
54428;SDS011;40337;52.978;6.310;2022-09-17T13:40:27;10.65;;;2.35;;
54428;SDS011;40337;52.978;6.310;2022-09-17T13:42:53;11.10;;;2.53;;
54428;SDS011;40337;52.978;6.310;2022-09-17T13:45:31;13.90;;;2.35;;
54428;SDS011;40337;52.978;6.310;2022-09-17T13:48:02;10.93;;;2.78;;
54428;SDS011;40337;52.978;6.310;2022-09-17T13:50:37;11.00;;;2.22;;
54428;SDS011;40337;52.978;6.310;2022-09-17T13:53:05;8.05;;;2.10;;
54428;SDS011;40337;52.978;6.310;2022-09-17T13:55:38;8.82;;;2.10;;
54428;SDS011;40337;52.978;6.310;2022-09-17T14:00:49;7.35;;;2.28;;
54428;SDS011;40337;52.978;6.310;2022-09-17T14:05:56;5.65;;;1.80;;
54428;SDS011;40337;52.978;6.310;2022-09-17T14:13:47;10.40;;;2.47;;
54428;SDS011;40337;52.978;6.310;2022-09-17T14:35:34;4.28;;;1.40;;
54428;SDS011;40337;52.978;6.310;2022-09-17T14:38:18;4.28;;;1.20;;
54428;SDS011;40337;52.978;6.310;2022-09-17T14:43:45;5.38;;;1.48;;
54428;SDS011;40337;52.978;6.310;2022-09-17T14:46:21;4.82;;;1.40;;
54428;SDS011;40337;52.978;6.310;2022-09-17T14:48:52;5.35;;;1.27;;
54428;SDS011;40337;52.978;6.310;2022-09-17T14:53:47;6.05;;;1.77;;
54428;SDS011;40337;52.978;6.310;2022-09-17T14:56:15;6.60;;;1.60;;
54428;SDS011;40337;52.978;6.310;2022-09-17T14:58:47;5.32;;;1.30;;
54428;SDS011;40337;52.978;6.310;2022-09-17T15:01:22;5.95;;;1.75;;
54428;SDS011;40337;52.978;6.310;2022-09-17T15:03:49;6.72;;;1.55;;
54428;SDS011;40337;52.978;6.310;2022-09-17T15:06:38;8.40;;;1.48;;
54428;SDS011;40337;52.978;6.310;2022-09-17T15:09:04;6.82;;;1.50;;
54428;SDS011;40337;52.978;6.310;2022-09-17T15:11:32;5.50;;;1.50;;
54428;SDS011;40337;52.978;6.310;2022-09-17T15:14:04;6.53;;;1.70;;
54428;SDS011;40337;52.978;6.310;2022-09-17T15:16:32;5.95;;;1.20;;
54428;SDS011;40337;52.978;6.310;2022-09-17T15:19:02;6.15;;;1.40;;
54428;SDS011;40337;52.978;6.310;2022-09-17T15:23:58;6.32;;;1.40;;
54428;SDS011;40337;52.978;6.310;2022-09-17T15:26:29;4.88;;;1.45;;
54428;SDS011;40337;52.978;6.310;2022-09-17T15:28:58;6.88;;;1.40;;
54428;SDS011;40337;52.978;6.310;2022-09-17T15:31:25;7.40;;;1.55;;
54428;SDS011;40337;52.978;6.310;2022-09-17T15:33:52;5.80;;;1.42;;
54428;SDS011;40337;52.978;6.310;2022-09-17T15:38:51;7.20;;;1.77;;
54428;SDS011;40337;52.978;6.310;2022-09-17T15:46:41;7.63;;;1.98;;
54428;SDS011;40337;52.978;6.310;2022-09-17T15:49:27;8.27;;;2.17;;
54428;SDS011;40337;52.978;6.310;2022-09-17T15:51:54;7.13;;;2.05;;
54428;SDS011;40337;52.978;6.310;2022-09-17T15:57:11;9.52;;;2.17;;
54428;SDS011;40337;52.978;6.310;2022-09-17T15:59:39;9.50;;;2.30;;
54428;SDS011;40337;52.978;6.310;2022-09-17T16:02:08;11.43;;;2.40;;
54428;SDS011;40337;52.978;6.310;2022-09-17T16:05:10;10.25;;;2.13;;
54428;SDS011;40337;52.978;6.310;2022-09-17T16:07:45;9.00;;;2.20;;
54428;SDS011;40337;52.978;6.310;2022-09-17T16:10:12;8.75;;;2.25;;
54428;SDS011;40337;52.978;6.310;2022-09-17T16:12:39;12.75;;;2.58;;
54428;SDS011;40337;52.978;6.310;2022-09-17T16:15:05;9.25;;;2.17;;
54428;SDS011;40337;52.978;6.310;2022-09-17T16:17:42;6.97;;;1.88;;
54428;SDS011;40337;52.978;6.310;2022-09-17T16:22:44;7.63;;;1.92;;
54428;SDS011;40337;52.978;6.310;2022-09-17T16:25:14;7.85;;;1.90;;
54428;SDS011;40337;52.978;6.310;2022-09-17T16:30:17;8.07;;;2.00;;
54428;SDS011;40337;52.978;6.310;2022-09-17T16:32:45;7.82;;;1.90;;
54428;SDS011;40337;52.978;6.310;2022-09-17T16:35:12;6.72;;;1.90;;
54428;SDS011;40337;52.978;6.310;2022-09-17T16:37:42;11.50;;;2.17;;
54428;SDS011;40337;52.978;6.310;2022-09-17T16:40:09;8.32;;;2.45;;
54428;SDS011;40337;52.978;6.310;2022-09-17T16:42:36;8.68;;;1.65;;
54428;SDS011;40337;52.978;6.310;2022-09-17T16:45:02;11.77;;;2.30;;
54428;SDS011;40337;52.978;6.310;2022-09-17T16:47:32;6.57;;;2.17;;
54428;SDS011;40337;52.978;6.310;2022-09-17T16:50:00;10.63;;;1.90;;
54428;SDS011;40337;52.978;6.310;2022-09-17T16:52:26;7.60;;;2.00;;
54428;SDS011;40337;52.978;6.310;2022-09-17T16:54:52;8.75;;;2.10;;
54428;SDS011;40337;52.978;6.310;2022-09-17T16:57:17;7.40;;;2.05;;
54428;SDS011;40337;52.978;6.310;2022-09-17T16:59:43;7.35;;;1.90;;
54428;SDS011;40337;52.978;6.310;2022-09-17T17:02:08;8.50;;;2.03;;
54428;SDS011;40337;52.978;6.310;2022-09-17T17:04:34;7.75;;;2.00;;
54428;SDS011;40337;52.978;6.310;2022-09-17T17:06:59;9.73;;;2.25;;
54428;SDS011;40337;52.978;6.310;2022-09-17T17:09:25;7.25;;;2.08;;
54428;SDS011;40337;52.978;6.310;2022-09-17T17:11:51;11.15;;;3.20;;
54428;SDS011;40337;52.978;6.310;2022-09-17T17:14:17;9.07;;;2.75;;
54428;SDS011;40337;52.978;6.310;2022-09-17T17:16:43;8.13;;;2.78;;
54428;SDS011;40337;52.978;6.310;2022-09-17T17:19:09;7.65;;;2.30;;
54428;SDS011;40337;52.978;6.310;2022-09-17T17:21:34;8.20;;;2.35;;
54428;SDS011;40337;52.978;6.310;2022-09-17T17:24:00;6.25;;;1.77;;
54428;SDS011;40337;52.978;6.310;2022-09-17T17:26:26;8.82;;;2.38;;
54428;SDS011;40337;52.978;6.310;2022-09-17T17:28:52;7.50;;;1.95;;
54428;SDS011;40337;52.978;6.310;2022-09-17T17:31:17;8.10;;;2.03;;
54428;SDS011;40337;52.978;6.310;2022-09-17T17:33:43;6.72;;;1.90;;
54428;SDS011;40337;52.978;6.310;2022-09-17T17:36:08;7.00;;;2.50;;
54428;SDS011;40337;52.978;6.310;2022-09-17T17:38:34;6.75;;;1.80;;
54428;SDS011;40337;52.978;6.310;2022-09-17T17:41:08;5.70;;;1.60;;
54428;SDS011;40337;52.978;6.310;2022-09-17T17:43:35;6.22;;;1.75;;
54428;SDS011;40337;52.978;6.310;2022-09-17T17:46:04;7.65;;;1.90;;
54428;SDS011;40337;52.978;6.310;2022-09-17T17:48:31;6.80;;;2.17;;
54428;SDS011;40337;52.978;6.310;2022-09-17T17:51:00;8.40;;;2.80;;
54428;SDS011;40337;52.978;6.310;2022-09-17T17:53:30;5.05;;;1.90;;
54428;SDS011;40337;52.978;6.310;2022-09-17T17:55:59;5.75;;;1.73;;
54428;SDS011;40337;52.978;6.310;2022-09-17T17:58:28;7.75;;;1.70;;
54428;SDS011;40337;52.978;6.310;2022-09-17T18:00:54;6.03;;;1.60;;
54428;SDS011;40337;52.978;6.310;2022-09-17T18:03:20;7.53;;;1.90;;
54428;SDS011;40337;52.978;6.310;2022-09-17T18:05:49;7.80;;;1.60;;
54428;SDS011;40337;52.978;6.310;2022-09-17T18:08:22;5.90;;;1.52;;
54428;SDS011;40337;52.978;6.310;2022-09-17T18:10:52;6.30;;;1.80;;
54428;SDS011;40337;52.978;6.310;2022-09-17T18:13:19;5.65;;;1.50;;
54428;SDS011;40337;52.978;6.310;2022-09-17T18:15:52;7.25;;;1.70;;